Kwok, Francis
United StatesManBorn 19662015 – 2026Runner id 625717
Events
29
2015 – 2026
Best pace
6.448
km/h · 2015
Best finish
7th
of 14 · 2015
Distance raced
2,106
km · splits not double-counted
Pace over time
km/h · higher is faster
Pace over time: 29 races from 2015 to 2026, ranging from 2.15 to 7.10 kilometres per hour, where higher is faster. A second, age-graded series is drawn above it; the gap between the two is the age credit.
- Actual pace
- Age-graded pace
Results
| Date | Event | Distance | Result | Pace km/h | Placing |
|---|---|---|---|---|---|
| 2015-01-10 | 50km | 7:45:15 h | 6.448 | 48/49 | |
| 2015-05-16 | 3 Days at the Fair 50 Km RaceUnited States | 50km | 9:06:10 h | 5.493 | 12/14 |
| 2015-07-18 | Lone Ranger 24 hr Urban UltraUnited States | 24h | 54.460 km | 2.269 | 120/128 |
| 2015-09-19 | 12h | 52.303 km | 4.359 | 7/14 | |
| 2016-02-06 | 24h | 79.662 km | 3.319 | 22/24 | |
| 2016-05-14 | 24h | 80.467 km | 3.353 | 39/52 | |
| 2017-02-04 | 24h | 83.428 km | 3.476 | 30/38 | |
| 2017-05-20 | 24h | 51.499 km | 2.146 | 56/61 | |
| 2017-11-11 | 24h | 80.467 km | 3.353 | 45/59 | |
| 2018-02-03 | 24h | 53.108 km | 2.213 | 31/31 | |
| 2018-05-19 | 24h | 80.467 km | 3.353 | 30/50 | |
| 2018-08-04 | 50mi | 17:52:23 h | 4.502 | 41/42 | |
| 2018-11-10 | 50km | 8:40:07 h | 5.768 | 9/10 | |
| 2018-12-15 | 50km | 9:35:00 h | 5.217 | 8/11 | |
| 2019-02-02 | 12h | 49.889 km | 4.157 | 20/20 | |
| 2019-05-16 | 72h | 162.543 km | 2.258 | 37/44 | |
| 2019-11-09 | 50km | 9:44:43 h | 5.131 | 12/14 | |
| 2020-10-01 | 72h | 162.543 km | 2.258 | 20/22 | |
| 2020-12-06 | 50mi | 16:16:54 h | 4.942 | 52/52 | |
| 2022-02-21 | 50mi | 17:56:46 h | 4.484 | 18/21 | |
| 2022-04-30 | 12h | 49.567 km | 4.131 | 14/16 | |
| 2022-05-12 | 72h | 162.543 km | 2.258 | 40/52 | |
| 2023-04-29 | 12h | 49.567 km | 4.131 | 17/20 | |
| 2023-05-13 | 3 Days at the Fair 24 Hour RaceUnited States | 24h | 80.467 km | 3.353 | 43/69 |
| 2023-10-07 | 12h | 51.032 km | 4.253 | 30/32 | |
| 2023-12-03 | 50km | 9:41:01 h | 5.163 | 63/68 | |
| 2024-12-01 | 50km | 9:34:00 h | 5.226 | 73/77 | |
| 2025-05-17 | 24h | 80.467 km | 3.353 | 27/47 | |
| 2026-05-16 | 50km | 13:01:33 h | 3.839 | 21/25 |